createdAt,value
2022-11-27T00:03:30.788Z,102483.00
2022-11-27T00:08:32.521Z,102489.09
2022-11-27T00:13:34.036Z,102488.28
2022-11-27T00:18:36.184Z,102496.88
2022-11-27T00:23:37.792Z,102497.69
2022-11-27T00:28:39.578Z,102488.34
2022-11-27T00:33:41.365Z,102499.56
2022-11-27T00:38:43.008Z,102517.72
2022-11-27T00:43:45.568Z,102531.63
2022-11-27T00:48:47.635Z,102537.72
2022-11-27T00:53:49.582Z,102523.06
2022-11-27T00:58:52.143Z,102530.91
2022-11-27T01:03:55.070Z,102519.53
2022-11-27T01:08:57.519Z,102508.38
2022-11-27T01:14:05.497Z,102502.22
2022-11-27T01:19:07.076Z,102504.75
2022-11-27T01:24:10.180Z,102503.88
2022-11-27T01:29:11.889Z,102502.06
2022-11-27T01:34:16.332Z,102496.75
2022-11-27T01:39:20.686Z,102478.69
2022-11-27T01:44:25.203Z,102481.28
2022-11-27T01:49:32.781Z,102489.91
2022-11-27T01:54:42.031Z,102492.44
2022-11-27T01:59:44.241Z,102491.63
2022-11-27T02:04:45.750Z,102485.34
2022-11-27T02:09:47.450Z,102478.59
2022-11-27T02:15:10.855Z,102487.06
2022-11-27T02:20:23.463Z,102480.22
2022-11-27T02:25:33.020Z,102483.56
2022-11-27T02:30:41.506Z,102472.25
2022-11-27T02:35:58.289Z,102468.69
2022-11-27T02:41:09.379Z,102470.53
2022-11-27T02:46:12.963Z,102466.19
2022-11-27T02:51:18.292Z,102463.53
2022-11-27T02:56:23.890Z,102452.09
2022-11-27T03:01:29.726Z,102450.38
2022-11-27T03:06:42.210Z,102449.41
2022-11-27T03:11:44.725Z,102456.25
2022-11-27T03:16:55.285Z,102460.34
2022-11-27T03:21:59.904Z,102454.03
2022-11-27T03:27:01.758Z,102456.50
2022-11-27T03:32:04.484Z,102444.91
2022-11-27T03:37:06.282Z,102441.25
2022-11-27T03:42:32.574Z,102429.78
2022-11-27T03:47:46.457Z,102421.88
2022-11-27T03:53:30.017Z,102430.28
2022-11-27T03:58:41.121Z,102428.25
2022-11-27T04:03:42.854Z,102410.69
2022-11-27T04:08:46.987Z,102410.50
2022-11-27T04:13:48.682Z,102426.03
2022-11-27T04:18:50.157Z,102432.06
2022-11-27T04:23:51.684Z,102438.84
2022-11-27T04:28:53.177Z,102426.69
2022-11-27T04:33:54.662Z,102428.38
2022-11-27T04:38:56.142Z,102411.28
2022-11-27T04:43:57.622Z,102394.72
2022-11-27T04:48:59.129Z,102391.00
2022-11-27T04:54:00.604Z,102382.28
2022-11-27T04:59:02.091Z,102372.47
2022-11-27T05:04:03.829Z,102362.22
2022-11-27T05:09:05.458Z,102349.94
2022-11-27T05:14:16.666Z,102349.78
2022-11-27T05:19:20.249Z,102332.28
2022-11-27T05:24:24.503Z,102320.91
2022-11-27T05:29:26.319Z,102327.81
2022-11-27T05:34:27.858Z,102320.81
2022-11-27T05:39:29.351Z,102339.66
2022-11-27T05:44:30.869Z,102338.78
2022-11-27T05:49:32.472Z,102336.03
2022-11-27T05:54:33.980Z,102351.47
2022-11-27T05:59:35.536Z,102342.75
2022-11-27T06:04:37.060Z,102354.72
2022-11-27T06:09:38.540Z,102352.25
2022-11-27T06:14:40.159Z,102359.06
2022-11-27T06:19:42.971Z,102338.94
2022-11-27T06:24:44.484Z,102332.03
2022-11-27T06:29:45.956Z,102330.59
2022-11-27T06:34:47.422Z,102329.34
2022-11-27T06:39:49.952Z,102319.78
2022-11-27T06:44:51.477Z,102320.53
2022-11-27T06:49:53.026Z,102311.75
2022-11-27T06:54:54.554Z,102310.06
2022-11-27T06:59:56.030Z,102315.28
2022-11-27T07:04:57.549Z,102305.91
2022-11-27T07:09:59.034Z,102318.72
2022-11-27T07:15:04.021Z,102308.25
2022-11-27T07:20:06.797Z,102310.97
2022-11-27T07:25:08.588Z,102311.28
2022-11-27T07:30:10.913Z,102317.28
2022-11-27T07:35:12.529Z,102308.66
2022-11-27T07:40:15.300Z,102299.28
2022-11-27T07:45:16.721Z,102291.59
2022-11-27T07:50:18.218Z,102285.66
2022-11-27T07:55:19.676Z,102298.59
2022-11-27T08:00:21.415Z,102295.84
2022-11-27T08:05:30.355Z,102271.75
2022-11-27T08:10:35.852Z,102253.97
2022-11-27T08:15:37.784Z,102245.66
2022-11-27T08:20:39.288Z,102251.69
2022-11-27T08:25:40.809Z,102245.72
2022-11-27T08:30:42.370Z,102248.31
2022-11-27T08:35:48.983Z,102258.47
2022-11-27T08:41:01.927Z,102263.50
2022-11-27T08:46:05.780Z,102254.84
2022-11-27T08:51:10.369Z,102242.81
2022-11-27T08:56:16.951Z,102235.03
2022-11-27T09:01:21.438Z,102236.81
2022-11-27T09:06:29.083Z,102246.22
2022-11-27T09:11:31.997Z,102250.50
2022-11-27T09:16:33.642Z,102242.31
2022-11-27T09:21:35.332Z,102241.81
2022-11-27T09:26:36.989Z,102235.47
2022-11-27T09:31:38.498Z,102223.78
2022-11-27T09:36:40.078Z,102203.56
2022-11-27T09:41:56.072Z,102224.56
2022-11-27T09:47:03.702Z,102239.63
2022-11-27T09:52:22.784Z,102223.69
2022-11-27T09:57:37.666Z,102215.84
2022-11-27T10:02:41.045Z,102233.53
2022-11-27T10:08:36.585Z,102212.53
2022-11-27T10:13:43.742Z,102198.09
2022-11-27T10:18:52.064Z,102175.56
2022-11-27T10:23:56.589Z,102194.88
2022-11-27T10:28:58.060Z,102195.69
2022-11-27T10:34:02.817Z,102201.53
2022-11-27T10:39:06.759Z,102212.88
2022-11-27T10:44:30.104Z,102188.84
2022-11-27T10:49:32.558Z,102178.63
2022-11-27T10:54:37.844Z,102173.91
2022-11-27T11:00:01.704Z,102155.94
2022-11-27T11:10:57.361Z,102151.22
2022-11-27T11:16:07.438Z,102152.09
2022-11-27T11:21:17.251Z,102143.28
2022-11-27T11:26:21.666Z,102131.47
2022-11-27T11:31:35.601Z,102129.75
2022-11-27T11:36:37.168Z,102131.34
2022-11-27T11:41:39.537Z,102131.41
2022-11-27T11:46:41.085Z,102114.22
2022-11-27T11:51:54.798Z,102106.50
2022-11-27T11:57:00.161Z,102103.81
2022-11-27T12:02:49.989Z,102101.44
2022-11-27T12:08:10.366Z,102074.69
2022-11-27T12:13:53.761Z,102057.53
2022-11-27T12:19:07.286Z,102052.28
2022-11-27T12:24:26.864Z,102064.22
2022-11-27T12:29:56.146Z,102054.00
2022-11-27T12:35:20.168Z,102041.66
2022-11-27T12:40:43.239Z,102037.34
2022-11-27T12:46:05.398Z,102042.44
2022-11-27T12:51:21.095Z,102045.03
2022-11-27T12:56:30.734Z,102041.50
2022-11-27T13:01:59.305Z,102034.75
2022-11-27T13:07:20.002Z,102032.22
2022-11-27T13:12:29.496Z,102037.44
2022-11-27T13:17:43.053Z,102007.16
2022-11-27T13:22:46.782Z,101999.25
2022-11-27T13:27:51.087Z,102004.56
2022-11-27T13:32:56.263Z,102002.97
2022-11-27T13:38:08.434Z,101992.50
2022-11-27T13:43:45.226Z,101995.06
2022-11-27T13:48:57.537Z,101987.25
2022-11-27T13:54:18.101Z,101987.25
2022-11-27T13:59:24.056Z,101980.25
2022-11-27T14:04:27.416Z,101978.69
2022-11-27T14:09:42.487Z,101976.78
2022-11-27T14:14:45.345Z,101963.84
2022-11-27T14:19:58.457Z,101968.91
2022-11-27T14:25:00.065Z,101967.25
2022-11-27T14:30:21.367Z,101962.91
2022-11-27T14:35:25.659Z,101967.19
2022-11-27T14:40:28.188Z,101956.81
2022-11-27T14:45:29.628Z,101943.81
2022-11-27T14:50:31.106Z,101950.81
2022-11-27T14:55:34.738Z,101944.72
2022-11-27T15:00:36.410Z,101937.78
2022-11-27T15:05:38.946Z,101932.59
2022-11-27T15:10:41.625Z,101931.59
2022-11-27T15:15:44.244Z,101925.59
2022-11-27T15:20:46.290Z,101922.97
2022-11-27T15:25:52.135Z,101923.81
2022-11-27T15:30:54.108Z,101914.25
2022-11-27T15:36:15.833Z,101919.47
2022-11-27T15:41:20.125Z,101908.19
2022-11-27T15:46:34.433Z,101897.84
2022-11-27T15:51:35.850Z,101898.66
2022-11-27T15:56:37.543Z,101894.38
2022-11-27T16:01:39.100Z,101893.56
2022-11-27T16:06:40.685Z,101871.88
2022-11-27T16:11:43.650Z,101881.44
2022-11-27T16:16:45.253Z,101892.75
2022-11-27T16:21:47.577Z,101884.03
2022-11-27T16:26:49.077Z,101864.94
2022-11-27T16:31:50.633Z,101860.66
2022-11-27T16:36:52.180Z,101846.03
2022-11-27T16:41:53.644Z,101844.34
2022-11-27T16:46:55.332Z,101840.84
2022-11-27T16:51:57.282Z,101833.13
2022-11-27T16:56:59.844Z,101817.56
2022-11-27T17:02:02.232Z,101817.59
2022-11-27T17:07:03.761Z,101807.16
2022-11-27T17:12:05.545Z,101805.50
2022-11-27T17:17:07.048Z,101791.72
2022-11-27T17:22:08.614Z,101798.56
2022-11-27T17:27:10.180Z,101797.69
2022-11-27T17:32:12.951Z,101782.16
2022-11-27T17:37:14.520Z,101779.53
2022-11-27T17:42:21.081Z,101772.66
2022-11-27T17:47:24.032Z,101767.47
2022-11-27T17:52:25.529Z,101773.53
2022-11-27T17:57:27.046Z,101763.94
2022-11-27T18:02:28.574Z,101764.03
2022-11-27T18:07:30.192Z,101751.81
2022-11-27T18:12:31.752Z,101754.44
2022-11-27T18:17:33.272Z,101755.31
2022-11-27T18:22:34.817Z,101744.16
2022-11-27T18:27:36.535Z,101746.75
2022-11-27T18:32:38.929Z,101735.50
2022-11-27T18:37:40.409Z,101742.41
2022-11-27T18:42:41.900Z,101732.00
2022-11-27T18:47:43.341Z,101720.72
2022-11-27T18:52:44.772Z,101700.84
2022-11-27T18:57:46.347Z,101710.38
2022-11-27T19:02:47.887Z,101710.31
2022-11-27T19:07:49.612Z,101712.09
2022-11-27T19:12:51.199Z,101702.66
2022-11-27T19:17:52.777Z,101701.69
2022-11-27T19:22:54.248Z,101708.63
2022-11-27T19:27:55.788Z,101697.44
2022-11-27T19:32:57.224Z,101685.34
2022-11-27T19:37:59.219Z,101690.47
2022-11-27T19:43:01.370Z,101688.72
2022-11-27T19:48:03.078Z,101687.81
2022-11-27T19:53:05.225Z,101687.03
2022-11-27T19:58:06.828Z,101672.28
2022-11-27T20:03:08.255Z,101660.28
2022-11-27T20:08:09.823Z,101654.22
2022-11-27T20:13:11.281Z,101650.00
2022-11-27T20:18:12.810Z,101652.56
2022-11-27T20:23:17.314Z,101645.59
2022-11-27T20:28:18.764Z,101638.69
2022-11-27T20:33:21.002Z,101637.81
2022-11-27T20:38:22.998Z,101630.91
2022-11-27T20:43:24.573Z,101636.06
2022-11-27T20:48:26.096Z,101630.84
2022-11-27T20:53:27.625Z,101618.78
2022-11-27T20:58:29.156Z,101603.28
2022-11-27T21:03:30.627Z,101602.34
2022-11-27T21:08:32.127Z,101612.72
2022-11-27T21:13:33.593Z,101622.28
2022-11-27T21:18:35.171Z,101637.06
2022-11-27T21:23:37.512Z,101611.88
2022-11-27T21:28:39.109Z,101619.69
2022-11-27T21:33:40.609Z,101609.28
2022-11-27T21:38:42.286Z,101605.00
2022-11-27T21:43:44.614Z,101598.06
2022-11-27T21:48:47.478Z,101598.94
2022-11-27T21:53:52.007Z,101595.50
2022-11-27T21:58:53.549Z,101597.25
2022-11-27T22:03:57.430Z,101571.34
2022-11-27T22:08:59.060Z,101560.13
2022-11-27T22:14:07.372Z,101567.03
2022-11-27T22:19:10.065Z,101562.69
2022-11-27T22:24:16.776Z,101565.31
2022-11-27T22:29:19.647Z,101565.38
2022-11-27T22:34:21.221Z,101554.09
2022-11-27T22:39:22.678Z,101545.53
2022-11-27T22:44:24.133Z,101530.84
2022-11-27T22:49:25.592Z,101532.59
2022-11-27T22:54:27.084Z,101530.84
2022-11-27T22:59:33.654Z,101523.13
2022-11-27T23:04:36.512Z,101501.50
2022-11-27T23:09:38.050Z,101498.97
2022-11-27T23:14:39.753Z,101483.41
2022-11-27T23:19:41.381Z,101490.31
2022-11-27T23:24:43.401Z,101467.84
2022-11-27T23:29:45.305Z,101467.06
2022-11-27T23:34:47.094Z,101464.50
2022-11-27T23:39:48.594Z,101454.13
2022-11-27T23:44:50.053Z,101438.56
2022-11-27T23:49:51.531Z,101431.69
2022-11-27T23:54:53.030Z,101432.50
2022-11-27T23:59:54.496Z,101413.56
